AKJ1509 VAPO-VAAH
Flight info
| Callsign | AKJ1509 |
|---|---|
| Flight time | 0h 57m |
| Altitude | 34000 |
| Route | DOGAP2A DOGAP DCT AKTIV DCT ISRIS/N0452F330 Z1 APANO APANO1A |
| Aircraft | B38M/M-SDE1FGHILORVWXY/HB1 |
Departure
| Time | 2026-05-06 10:04 |
|---|---|
| Airport | Pune International Airport (VAPO) |
Arrival
| Time | 2026-05-06 11:02 |
|---|---|
| Airport | Sardar Vallabh Patel International Airport (VAAH) |
| Time | Latitude | Longitude | Altitude | Speed | Heading |
|---|---|---|---|---|---|
| 2026-05-06 09:29 | 18.58005 | 73.90965 | 1951 ft | 0 kts | 187° |
| 2026-05-06 09:51 | 18.58013 | 73.90966 | 1950 ft | 2 kts | 187° |
| 2026-05-06 09:51 | 18.58027 | 73.90968 | 1951 ft | 2 kts | 187° |
| 2026-05-06 09:51 | 18.58042 | 73.90971 | 1950 ft | 2 kts | 178° |
| 2026-05-06 09:51 | 18.58055 | 73.90964 | 1951 ft | 1 kts | 127° |
| 2026-05-06 09:52 | 18.58058 | 73.90950 | 1950 ft | 2 kts | 88° |
| 2026-05-06 09:52 | 18.58060 | 73.90935 | 1950 ft | 2 kts | 102° |
| 2026-05-06 09:52 | 18.58062 | 73.90919 | 1951 ft | 1 kts | 97° |
| 2026-05-06 09:52 | 18.58062 | 73.90918 | 1951 ft | 0 kts | 97° |
| 2026-05-06 09:56 | 18.58062 | 73.90919 | 1951 ft | 0 kts | 97° |
| 2026-05-06 09:56 | 18.58057 | 73.90959 | 1950 ft | 8 kts | 98° |
| 2026-05-06 09:57 | 18.58052 | 73.90997 | 1950 ft | 4 kts | 97° |
| 2026-05-06 09:57 | 18.58086 | 73.91020 | 1950 ft | 8 kts | 16° |
| 2026-05-06 09:57 | 18.58109 | 73.91031 | 1950 ft | 4 kts | 52° |
| 2026-05-06 09:57 | 18.58120 | 73.91103 | 1950 ft | 10 kts | 92° |
| 2026-05-06 09:58 | 18.58113 | 73.91219 | 1950 ft | 21 kts | 93° |
| 2026-05-06 09:58 | 18.58105 | 73.91376 | 1950 ft | 20 kts | 94° |
| 2026-05-06 09:58 | 18.58096 | 73.91526 | 1950 ft | 20 kts | 93° |
| 2026-05-06 09:58 | 18.58085 | 73.91682 | 1950 ft | 21 kts | 94° |
| 2026-05-06 09:59 | 18.58074 | 73.91847 | 1950 ft | 25 kts | 93° |
| 2026-05-06 09:59 | 18.58063 | 73.92032 | 1950 ft | 24 kts | 93° |
| 2026-05-06 09:59 | 18.58052 | 73.92210 | 1949 ft | 23 kts | 96° |
| 2026-05-06 09:59 | 18.58043 | 73.92375 | 1949 ft | 22 kts | 92° |
| 2026-05-06 10:00 | 18.58033 | 73.92551 | 1949 ft | 25 kts | 95° |
| 2026-05-06 10:00 | 18.58019 | 73.92731 | 1949 ft | 23 kts | 94° |
| 2026-05-06 10:00 | 18.58012 | 73.92884 | 1949 ft | 15 kts | 92° |
| 2026-05-06 10:00 | 18.58005 | 73.92978 | 1949 ft | 5 kts | 96° |
| 2026-05-06 10:01 | 18.58023 | 73.93000 | 1949 ft | 6 kts | 19° |
| 2026-05-06 10:01 | 18.58056 | 73.93005 | 1949 ft | 0 kts | 4° |
| 2026-05-06 10:02 | 18.58094 | 73.93008 | 1949 ft | 8 kts | 4° |
| 2026-05-06 10:02 | 18.58148 | 73.93006 | 1949 ft | 6 kts | 327° |
| 2026-05-06 10:02 | 18.58165 | 73.92960 | 1949 ft | 4 kts | 272° |
| 2026-05-06 10:03 | 18.58166 | 73.92954 | 1949 ft | 0 kts | 273° |
| 2026-05-06 10:03 | 18.58166 | 73.92950 | 1949 ft | 3 kts | 273° |
| 2026-05-06 10:03 | 18.58171 | 73.92862 | 1949 ft | 29 kts | 274° |
| 2026-05-06 10:03 | 18.58201 | 73.92361 | 1949 ft | 104 kts | 273° |
| 2026-05-06 10:04 | 18.58261 | 73.91378 | 1951 ft | 165 kts | 273° |
| 2026-05-06 10:04 | 18.58334 | 73.90045 | 2319 ft | 187 kts | 275° |
| 2026-05-06 10:04 | 18.58425 | 73.88663 | 2982 ft | 197 kts | 277° |
| 2026-05-06 10:04 | 18.58550 | 73.87206 | 3565 ft | 205 kts | 277° |
| 2026-05-06 10:05 | 18.58672 | 73.85665 | 3991 ft | 221 kts | 276° |
| 2026-05-06 10:05 | 18.58791 | 73.83977 | 4435 ft | 239 kts | 276° |
| 2026-05-06 10:05 | 18.58912 | 73.82179 | 4893 ft | 258 kts | 276° |
| 2026-05-06 10:05 | 18.59310 | 73.80303 | 5430 ft | 271 kts | 298° |
| 2026-05-06 10:06 | 18.60548 | 73.78808 | 6009 ft | 279 kts | 326° |
| 2026-05-06 10:06 | 18.62230 | 73.77753 | 6790 ft | 282 kts | 332° |
| 2026-05-06 10:06 | 18.63968 | 73.76778 | 7569 ft | 286 kts | 332° |
| 2026-05-06 10:06 | 18.65590 | 73.75550 | 8315 ft | 292 kts | 312° |
| 2026-05-06 10:07 | 18.66703 | 73.73764 | 9131 ft | 295 kts | 297° |
| 2026-05-06 10:07 | 18.67555 | 73.71798 | 9904 ft | 299 kts | 294° |
| 2026-05-06 10:07 | 18.68358 | 73.69770 | 10534 ft | 309 kts | 294° |
| 2026-05-06 10:07 | 18.69237 | 73.67621 | 11064 ft | 324 kts | 295° |
| 2026-05-06 10:08 | 18.70184 | 73.65428 | 11517 ft | 339 kts | 296° |
| 2026-05-06 10:08 | 18.71217 | 73.63123 | 12136 ft | 349 kts | 296° |
| 2026-05-06 10:08 | 18.72258 | 73.60833 | 12968 ft | 351 kts | 296° |
| 2026-05-06 10:08 | 18.73325 | 73.58490 | 13759 ft | 353 kts | 296° |
| 2026-05-06 10:09 | 18.74384 | 73.56161 | 14525 ft | 357 kts | 296° |
| 2026-05-06 10:09 | 18.75463 | 73.53782 | 15322 ft | 360 kts | 296° |
| 2026-05-06 10:09 | 18.76536 | 73.51409 | 16025 ft | 364 kts | 296° |
| 2026-05-06 10:09 | 18.77622 | 73.49005 | 16725 ft | 368 kts | 296° |
| 2026-05-06 10:10 | 18.78779 | 73.46575 | 17376 ft | 370 kts | 300° |
| 2026-05-06 10:10 | 18.80225 | 73.44360 | 18090 ft | 371 kts | 313° |
| 2026-05-06 10:10 | 18.82213 | 73.42641 | 18736 ft | 372 kts | 329° |
| 2026-05-06 10:10 | 18.84602 | 73.41539 | 19400 ft | 374 kts | 342° |
| 2026-05-06 10:11 | 18.87139 | 73.40929 | 19987 ft | 378 kts | 349° |
| 2026-05-06 10:11 | 18.89780 | 73.40549 | 20555 ft | 381 kts | 352° |
| 2026-05-06 10:11 | 18.91553 | 73.40352 | 20936 ft | 382 kts | 353° |
| 2026-05-06 10:11 | 18.95102 | 73.40006 | 21667 ft | 385 kts | 353° |
| 2026-05-06 10:12 | 18.97780 | 73.39751 | 22200 ft | 388 kts | 353° |
| 2026-05-06 10:12 | 19.00479 | 73.39486 | 22690 ft | 392 kts | 353° |
| 2026-05-06 10:12 | 19.03201 | 73.39209 | 23213 ft | 395 kts | 352° |
| 2026-05-06 10:12 | 19.05968 | 73.38919 | 23675 ft | 399 kts | 352° |
| 2026-05-06 10:13 | 19.08750 | 73.38622 | 24167 ft | 402 kts | 352° |
| 2026-05-06 10:13 | 19.11547 | 73.38319 | 24647 ft | 406 kts | 352° |
| 2026-05-06 10:13 | 19.14333 | 73.38015 | 25097 ft | 409 kts | 352° |
| 2026-05-06 10:13 | 19.17220 | 73.37700 | 25560 ft | 413 kts | 352° |
| 2026-05-06 10:14 | 19.20052 | 73.37390 | 26030 ft | 415 kts | 352° |
| 2026-05-06 10:14 | 19.22956 | 73.37072 | 26486 ft | 418 kts | 352° |
| 2026-05-06 10:14 | 19.25854 | 73.36755 | 26907 ft | 422 kts | 352° |
| 2026-05-06 10:14 | 19.28790 | 73.36433 | 27335 ft | 425 kts | 352° |
| 2026-05-06 10:15 | 19.31778 | 73.36105 | 27776 ft | 428 kts | 352° |
| 2026-05-06 10:15 | 19.34717 | 73.35783 | 28211 ft | 430 kts | 352° |
| 2026-05-06 10:15 | 19.37718 | 73.35454 | 28600 ft | 434 kts | 352° |
| 2026-05-06 10:15 | 19.40752 | 73.35121 | 28987 ft | 437 kts | 352° |
| 2026-05-06 10:16 | 19.43770 | 73.34790 | 29416 ft | 439 kts | 352° |
| 2026-05-06 10:16 | 19.46858 | 73.34451 | 29797 ft | 442 kts | 352° |
| 2026-05-06 10:16 | 19.49884 | 73.34119 | 30379 ft | 440 kts | 352° |
| 2026-05-06 10:16 | 19.51946 | 73.33893 | 30784 ft | 438 kts | 352° |
| 2026-05-06 10:17 | 19.55962 | 73.33452 | 31406 ft | 438 kts | 352° |
| 2026-05-06 10:17 | 19.59004 | 73.33118 | 31932 ft | 437 kts | 352° |
| 2026-05-06 10:17 | 19.61001 | 73.32898 | 32275 ft | 436 kts | 352° |
| 2026-05-06 10:17 | 19.64985 | 73.32459 | 32937 ft | 435 kts | 352° |
| 2026-05-06 10:18 | 19.68014 | 73.32126 | 33507 ft | 433 kts | 352° |
| 2026-05-06 10:18 | 19.71012 | 73.31796 | 33818 ft | 435 kts | 352° |
| 2026-05-06 10:18 | 19.77114 | 73.31118 | 33815 ft | 451 kts | 351° |
| 2026-05-06 10:19 | 19.83459 | 73.30415 | 33819 ft | 456 kts | 352° |
| 2026-05-06 10:19 | 19.89728 | 73.29726 | 33828 ft | 454 kts | 352° |
| 2026-05-06 10:20 | 19.96016 | 73.29032 | 33840 ft | 454 kts | 351° |
| 2026-05-06 10:20 | 20.02217 | 73.28347 | 33846 ft | 454 kts | 352° |
| 2026-05-06 10:21 | 20.08552 | 73.27646 | 33847 ft | 454 kts | 351° |
| 2026-05-06 10:21 | 20.14729 | 73.26962 | 33847 ft | 454 kts | 351° |
| 2026-05-06 10:22 | 20.21019 | 73.26202 | 33854 ft | 453 kts | 348° |
| 2026-05-06 10:22 | 20.27023 | 73.24406 | 33866 ft | 449 kts | 334° |
| 2026-05-06 10:23 | 20.32558 | 73.21389 | 33844 ft | 447 kts | 328° |
| 2026-05-06 10:23 | 20.37975 | 73.18027 | 33825 ft | 447 kts | 327° |
| 2026-05-06 10:24 | 20.43322 | 73.14667 | 33804 ft | 446 kts | 327° |
| 2026-05-06 10:24 | 20.48662 | 73.11347 | 33790 ft | 447 kts | 328° |
| 2026-05-06 10:25 | 20.54039 | 73.08034 | 33777 ft | 445 kts | 328° |
| 2026-05-06 10:25 | 20.59390 | 73.04748 | 33771 ft | 445 kts | 328° |
| 2026-05-06 10:26 | 20.64775 | 73.01445 | 33768 ft | 446 kts | 328° |
| 2026-05-06 10:26 | 20.70138 | 72.98158 | 33764 ft | 446 kts | 328° |
| 2026-05-06 10:27 | 20.75742 | 72.95385 | 33765 ft | 450 kts | 341° |
| 2026-05-06 10:27 | 20.78860 | 72.94792 | 33767 ft | 454 kts | 353° |
| 2026-05-06 10:27 | 20.82030 | 72.94675 | 33767 ft | 456 kts | 356° |
| 2026-05-06 10:28 | 20.88364 | 72.94870 | 33764 ft | 455 kts | 359° |
| 2026-05-06 10:28 | 20.94659 | 72.95190 | 33767 ft | 456 kts | 359° |
| 2026-05-06 10:29 | 21.00972 | 72.95490 | 33769 ft | 457 kts | 359° |
| 2026-05-06 10:29 | 21.07297 | 72.95759 | 33765 ft | 456 kts | 359° |
| 2026-05-06 10:30 | 21.13415 | 72.95998 | 33768 ft | 456 kts | 359° |
| 2026-05-06 10:30 | 21.18629 | 72.96199 | 33753 ft | 437 kts | 358° |
| 2026-05-06 10:31 | 21.22627 | 72.96383 | 33437 ft | 425 kts | 359° |
| 2026-05-06 10:31 | 21.25565 | 72.96538 | 33013 ft | 420 kts | 359° |
| 2026-05-06 10:31 | 21.28435 | 72.96695 | 32516 ft | 417 kts | 359° |
| 2026-05-06 10:31 | 21.31350 | 72.96854 | 32018 ft | 415 kts | 359° |
| 2026-05-06 10:32 | 21.34225 | 72.97008 | 31507 ft | 413 kts | 359° |
| 2026-05-06 10:32 | 21.37086 | 72.97162 | 30978 ft | 411 kts | 359° |
| 2026-05-06 10:32 | 21.39948 | 72.97313 | 30446 ft | 409 kts | 359° |
| 2026-05-06 10:32 | 21.42776 | 72.97463 | 29909 ft | 408 kts | 359° |
| 2026-05-06 10:33 | 21.45598 | 72.97613 | 29378 ft | 406 kts | 358° |
| 2026-05-06 10:33 | 21.48416 | 72.97761 | 28840 ft | 404 kts | 358° |
| 2026-05-06 10:33 | 21.51228 | 72.97907 | 28309 ft | 402 kts | 358° |
| 2026-05-06 10:33 | 21.53993 | 72.98049 | 27801 ft | 400 kts | 358° |
| 2026-05-06 10:34 | 21.56787 | 72.98094 | 27261 ft | 397 kts | 354° |
| 2026-05-06 10:34 | 21.59508 | 72.97863 | 26730 ft | 392 kts | 348° |
| 2026-05-06 10:34 | 21.62198 | 72.97308 | 26192 ft | 389 kts | 343° |
| 2026-05-06 10:34 | 21.64800 | 72.96596 | 25669 ft | 387 kts | 341° |
| 2026-05-06 10:35 | 21.67398 | 72.95811 | 25133 ft | 386 kts | 341° |
| 2026-05-06 10:35 | 21.69978 | 72.95011 | 24793 ft | 378 kts | 341° |
| 2026-05-06 10:35 | 21.72463 | 72.94246 | 24745 ft | 364 kts | 341° |
| 2026-05-06 10:35 | 21.74856 | 72.93520 | 24733 ft | 350 kts | 341° |
| 2026-05-06 10:36 | 21.77150 | 72.92832 | 24730 ft | 339 kts | 341° |
| 2026-05-06 10:36 | 21.79435 | 72.92149 | 24574 ft | 337 kts | 341° |
| 2026-05-06 10:36 | 21.81711 | 72.91470 | 24034 ft | 340 kts | 341° |
| 2026-05-06 10:36 | 21.83972 | 72.90797 | 23597 ft | 339 kts | 341° |
| 2026-05-06 10:37 | 21.86240 | 72.90127 | 23202 ft | 337 kts | 341° |
| 2026-05-06 10:37 | 21.88512 | 72.89458 | 22782 ft | 334 kts | 341° |
| 2026-05-06 10:37 | 21.90724 | 72.88807 | 22327 ft | 333 kts | 341° |
| 2026-05-06 10:37 | 21.92964 | 72.88146 | 21872 ft | 331 kts | 341° |
| 2026-05-06 10:38 | 21.95200 | 72.87485 | 21350 ft | 331 kts | 342° |
| 2026-05-06 10:38 | 21.97422 | 72.86830 | 20906 ft | 329 kts | 342° |
| 2026-05-06 10:38 | 21.99609 | 72.86184 | 20409 ft | 329 kts | 342° |
| 2026-05-06 10:38 | 22.01841 | 72.85525 | 19983 ft | 327 kts | 342° |
| 2026-05-06 10:39 | 22.04038 | 72.84879 | 19468 ft | 327 kts | 343° |
| 2026-05-06 10:39 | 22.06224 | 72.84235 | 19051 ft | 325 kts | 343° |
| 2026-05-06 10:39 | 22.08418 | 72.83588 | 18564 ft | 325 kts | 343° |
| 2026-05-06 10:39 | 22.10571 | 72.82954 | 18109 ft | 324 kts | 344° |
| 2026-05-06 10:40 | 22.12715 | 72.82320 | 17707 ft | 322 kts | 344° |
| 2026-05-06 10:40 | 22.14873 | 72.81682 | 17277 ft | 320 kts | 345° |
| 2026-05-06 10:40 | 22.17038 | 72.81042 | 16856 ft | 319 kts | 345° |
| 2026-05-06 10:40 | 22.19186 | 72.80408 | 16455 ft | 317 kts | 345° |
| 2026-05-06 10:41 | 22.21290 | 72.79787 | 16086 ft | 315 kts | 345° |
| 2026-05-06 10:41 | 22.23390 | 72.79166 | 15708 ft | 312 kts | 345° |
| 2026-05-06 10:41 | 22.25465 | 72.78554 | 15326 ft | 310 kts | 345° |
| 2026-05-06 10:41 | 22.27553 | 72.77947 | 14955 ft | 308 kts | 345° |
| 2026-05-06 10:42 | 22.29615 | 72.77355 | 14562 ft | 306 kts | 346° |
| 2026-05-06 10:42 | 22.31713 | 72.76755 | 14154 ft | 305 kts | 346° |
| 2026-05-06 10:42 | 22.33733 | 72.76176 | 13801 ft | 303 kts | 346° |
| 2026-05-06 10:42 | 22.35106 | 72.75782 | 13567 ft | 301 kts | 346° |
| 2026-05-06 10:43 | 22.37813 | 72.75002 | 13041 ft | 299 kts | 346° |
| 2026-05-06 10:43 | 22.39807 | 72.74426 | 12623 ft | 299 kts | 346° |
| 2026-05-06 10:43 | 22.41827 | 72.73844 | 12230 ft | 298 kts | 346° |
| 2026-05-06 10:44 | 22.45790 | 72.72701 | 11478 ft | 294 kts | 346° |
| 2026-05-06 10:44 | 22.47770 | 72.72129 | 11361 ft | 282 kts | 346° |
| 2026-05-06 10:44 | 22.49664 | 72.71582 | 11005 ft | 282 kts | 346° |
| 2026-05-06 10:44 | 22.51552 | 72.71037 | 10644 ft | 281 kts | 346° |
| 2026-05-06 10:45 | 22.53427 | 72.70496 | 10267 ft | 281 kts | 345° |
| 2026-05-06 10:45 | 22.55315 | 72.69951 | 9933 ft | 279 kts | 345° |
| 2026-05-06 10:45 | 22.57204 | 72.69405 | 9563 ft | 278 kts | 345° |
| 2026-05-06 10:45 | 22.59074 | 72.68861 | 9228 ft | 277 kts | 345° |
| 2026-05-06 10:46 | 22.60944 | 72.68314 | 8874 ft | 276 kts | 345° |
| 2026-05-06 10:46 | 22.62793 | 72.67773 | 8526 ft | 275 kts | 345° |
| 2026-05-06 10:46 | 22.64642 | 72.67233 | 8204 ft | 273 kts | 345° |
| 2026-05-06 10:46 | 22.66469 | 72.66698 | 7851 ft | 273 kts | 345° |
| 2026-05-06 10:47 | 22.68301 | 72.66162 | 7515 ft | 271 kts | 345° |
| 2026-05-06 10:47 | 22.70133 | 72.65627 | 7162 ft | 271 kts | 345° |
| 2026-05-06 10:47 | 22.71340 | 72.65273 | 6959 ft | 269 kts | 345° |
| 2026-05-06 10:47 | 22.73746 | 72.64569 | 6532 ft | 267 kts | 345° |
| 2026-05-06 10:48 | 22.75543 | 72.64043 | 6183 ft | 267 kts | 345° |
| 2026-05-06 10:48 | 22.77344 | 72.63515 | 5879 ft | 264 kts | 345° |
| 2026-05-06 10:48 | 22.79109 | 72.62998 | 5521 ft | 265 kts | 345° |
| 2026-05-06 10:48 | 22.80882 | 72.62479 | 5216 ft | 263 kts | 345° |
| 2026-05-06 10:49 | 22.82661 | 72.61958 | 4869 ft | 263 kts | 345° |
| 2026-05-06 10:49 | 22.84392 | 72.61454 | 4734 ft | 253 kts | 345° |
| 2026-05-06 10:49 | 22.85513 | 72.61130 | 4641 ft | 248 kts | 345° |
| 2026-05-06 10:49 | 22.87715 | 72.60729 | 4479 ft | 236 kts | 2° |
| 2026-05-06 10:50 | 22.89260 | 72.61239 | 4281 ft | 232 kts | 36° |
| 2026-05-06 10:50 | 22.90443 | 72.62434 | 4037 ft | 231 kts | 46° |
| 2026-05-06 10:50 | 22.91517 | 72.63718 | 3981 ft | 227 kts | 46° |
| 2026-05-06 10:50 | 22.92611 | 72.64976 | 3981 ft | 231 kts | 45° |
| 2026-05-06 10:51 | 22.93725 | 72.66210 | 3975 ft | 230 kts | 44° |
| 2026-05-06 10:51 | 22.94867 | 72.67460 | 3977 ft | 230 kts | 44° |
| 2026-05-06 10:51 | 22.95991 | 72.68690 | 3975 ft | 230 kts | 44° |
| 2026-05-06 10:51 | 22.97121 | 72.69928 | 3976 ft | 230 kts | 44° |
| 2026-05-06 10:52 | 22.98251 | 72.71165 | 3975 ft | 231 kts | 44° |
| 2026-05-06 10:52 | 22.99390 | 72.72413 | 3976 ft | 231 kts | 44° |
| 2026-05-06 10:52 | 23.00522 | 72.73653 | 3971 ft | 231 kts | 44° |
| 2026-05-06 10:52 | 23.01662 | 72.74892 | 3968 ft | 230 kts | 44° |
| 2026-05-06 10:53 | 23.02772 | 72.76077 | 3854 ft | 220 kts | 43° |
| 2026-05-06 10:53 | 23.03852 | 72.77220 | 3641 ft | 216 kts | 43° |
| 2026-05-06 10:53 | 23.04933 | 72.78364 | 3405 ft | 213 kts | 43° |
| 2026-05-06 10:53 | 23.05981 | 72.79475 | 3173 ft | 211 kts | 43° |
| 2026-05-06 10:54 | 23.07026 | 72.80585 | 2946 ft | 208 kts | 43° |
| 2026-05-06 10:54 | 23.08058 | 72.81681 | 2733 ft | 203 kts | 43° |
| 2026-05-06 10:54 | 23.09051 | 72.82737 | 2498 ft | 198 kts | 43° |
| 2026-05-06 10:54 | 23.10034 | 72.83783 | 2259 ft | 194 kts | 43° |
| 2026-05-06 10:55 | 23.10962 | 72.84770 | 2161 ft | 184 kts | 43° |
| 2026-05-06 10:55 | 23.11576 | 72.85424 | 2136 ft | 184 kts | 43° |
| 2026-05-06 10:55 | 23.12849 | 72.86671 | 2077 ft | 184 kts | 31° |
| 2026-05-06 10:55 | 23.14061 | 72.87055 | 2030 ft | 182 kts | 354° |
| 2026-05-06 10:56 | 23.15266 | 72.86665 | 1985 ft | 181 kts | 331° |
| 2026-05-06 10:56 | 23.16242 | 72.85822 | 1983 ft | 180 kts | 306° |
| 2026-05-06 10:56 | 23.16708 | 72.84567 | 1989 ft | 182 kts | 278° |
| 2026-05-06 10:56 | 23.16819 | 72.83206 | 1985 ft | 182 kts | 276° |
| 2026-05-06 10:57 | 23.16953 | 72.81828 | 1985 ft | 182 kts | 278° |
| 2026-05-06 10:57 | 23.17108 | 72.80466 | 1981 ft | 183 kts | 278° |
| 2026-05-06 10:57 | 23.17262 | 72.79100 | 1947 ft | 178 kts | 278° |
| 2026-05-06 10:57 | 23.17402 | 72.77826 | 1941 ft | 165 kts | 278° |
| 2026-05-06 10:58 | 23.17536 | 72.76604 | 1974 ft | 163 kts | 278° |
| 2026-05-06 10:58 | 23.17671 | 72.75369 | 1972 ft | 162 kts | 278° |
| 2026-05-06 10:58 | 23.17599 | 72.74155 | 1967 ft | 164 kts | 249° |
| 2026-05-06 10:58 | 23.16890 | 72.73171 | 1978 ft | 166 kts | 225° |
| 2026-05-06 10:59 | 23.16052 | 72.72319 | 1980 ft | 165 kts | 226° |
| 2026-05-06 10:59 | 23.15232 | 72.71429 | 1858 ft | 166 kts | 227° |
| 2026-05-06 10:59 | 23.14428 | 72.70567 | 1629 ft | 163 kts | 226° |
| 2026-05-06 10:59 | 23.13628 | 72.69720 | 1439 ft | 163 kts | 226° |
| 2026-05-06 11:00 | 23.12805 | 72.68844 | 1228 ft | 162 kts | 226° |
| 2026-05-06 11:00 | 23.12001 | 72.67986 | 1022 ft | 161 kts | 226° |
| 2026-05-06 11:00 | 23.11209 | 72.67146 | 824 ft | 160 kts | 225° |
| 2026-05-06 11:00 | 23.10413 | 72.66299 | 627 ft | 159 kts | 225° |
| 2026-05-06 11:01 | 23.09634 | 72.65474 | 425 ft | 157 kts | 224° |
| 2026-05-06 11:01 | 23.08856 | 72.64646 | 237 ft | 156 kts | 224° |
| 2026-05-06 11:01 | 23.08369 | 72.64128 | 191 ft | 141 kts | 224° |
| 2026-05-06 11:01 | 23.07672 | 72.63388 | 189 ft | 73 kts | 225° |
| 2026-05-06 11:02 | 23.07418 | 72.63117 | 186 ft | 42 kts | 226° |
| 2026-05-06 11:02 | 23.07243 | 72.62929 | 187 ft | 20 kts | 225° |
| 2026-05-06 11:02 | 23.07188 | 72.62805 | 189 ft | 17 kts | 255° |
| 2026-05-06 11:02 | 23.07159 | 72.62690 | 188 ft | 9 kts | 255° |
| 2026-05-06 11:03 | 23.07146 | 72.62622 | 188 ft | 8 kts | 275° |
| 2026-05-06 11:03 | 23.07163 | 72.62592 | 188 ft | 4 kts | 314° |
| 2026-05-06 11:03 | 23.07180 | 72.62573 | 187 ft | 5 kts | 315° |
| 2026-05-06 11:03 | 23.07210 | 72.62542 | 187 ft | 7 kts | 316° |
| 2026-05-06 11:04 | 23.07242 | 72.62508 | 188 ft | 3 kts | 315° |
| 2026-05-06 11:04 | 23.07266 | 72.62492 | 188 ft | 4 kts | 4° |
| 2026-05-06 11:04 | 23.07313 | 72.62524 | 187 ft | 8 kts | 44° |
| 2026-05-06 11:04 | 23.07356 | 72.62570 | 187 ft | 8 kts | 45° |
| 2026-05-06 11:05 | 23.07384 | 72.62600 | 187 ft | 8 kts | 45° |
| 2026-05-06 11:05 | 23.07433 | 72.62653 | 187 ft | 6 kts | 45° |
| 2026-05-06 11:05 | 23.07446 | 72.62667 | 187 ft | 2 kts | 43° |
| 2026-05-06 11:05 | 23.07469 | 72.62666 | 187 ft | 3 kts | 319° |
| 2026-05-06 11:06 | 23.07488 | 72.62643 | 187 ft | 3 kts | 312° |
| 2026-05-06 11:06 | 23.07504 | 72.62624 | 187 ft | 2 kts | 314° |
| 2026-05-06 11:06 | 23.07513 | 72.62614 | 187 ft | 0 kts | 314° |
| 2026-05-06 11:06 | 23.07517 | 72.62610 | 188 ft | 0 kts | 315° |